Check out our new PWSWeather beta!
PWSweather.com
Personal Weather Stations
Station Observations
98619
Glenwood, WA 98619

Glenwood, WA 98619

Lat: 46.016, Lon: -121.275

Elevation: 1885

Station Type: Davis Vantage Pro2

www.glenwoodwashingtonweather.info

High Low Average
Temperature 47.4°F8.6°C 45.8°F7.7°C 46.7°F8.2°C
Dew Point 37.7°F3.2°C 33.8°F1.0°C 36.3°F2.4°C
Winds 19.0 mph 30.6 kmh 1.0 mph 1.6 kmh 9.0 mph SSW14.5 kmh SSW
Wind Gusts 22.0 mph35.4 kmh 7.0 mph11.3 kmh 18.0 mph29.0 kmh
Humidity 72% 60% 67%
Pressure 30.27 in1025.1 mb 30.23 in1023.7 mb -
Precipitation 0.00 in0.0 mm - -
Hour Temp Dew Point Humidity Winds Wind Gusts Pressure Precip Precip Rate Daily Precip Total
09:16 PM 47.1°F8.4°C 34.4°F1.3°C 61% 4.0 mph SSW6.4 kmh SSW 7.0 mph11.3 kmh 30.26 in1024.7 mb 0.00 in0.0 mm 0.00 in0.0 mm 0.00 in0.0 mm
09:17 PM 47.0°F8.3°C 33.8°F1.0°C 60% 10.0 mph S16.1 kmh S 14.0 mph22.5 kmh 30.26 in1024.7 mb 0.00 in0.0 mm 0.00 in0.0 mm 0.00 in0.0 mm
09:18 PM 46.9°F8.3°C 34.2°F1.2°C 61% 6.0 mph SW9.7 kmh SW 15.0 mph24.1 kmh 30.26 in1024.7 mb 0.00 in0.0 mm 0.00 in0.0 mm 0.00 in0.0 mm
09:19 PM 46.9°F8.3°C 34.2°F1.2°C 61% 6.0 mph SW9.7 kmh SW 15.0 mph24.1 kmh 30.26 in1024.7 mb 0.00 in0.0 mm 0.00 in0.0 mm 0.00 in0.0 mm
09:20 PM 46.8°F8.2°C 34.1°F1.2°C 61% 12.0 mph S19.3 kmh S 15.0 mph24.1 kmh 30.26 in1024.7 mb 0.00 in0.0 mm 0.00 in0.0 mm 0.00 in0.0 mm
09:21 PM 46.7°F8.2°C 34.0°F1.1°C 61% 7.0 mph SSW11.3 kmh SSW 15.0 mph24.1 kmh 30.26 in1024.7 mb 0.00 in0.0 mm 0.00 in0.0 mm 0.00 in0.0 mm
09:22 PM 46.7°F8.2°C 34.4°F1.3°C 62% 7.0 mph SSW11.3 kmh SSW 15.0 mph24.1 kmh 30.27 in1025.1 mb 0.00 in0.0 mm 0.00 in0.0 mm 0.00 in0.0 mm
09:23 PM 46.6°F8.1°C 34.3°F1.3°C 62% 4.0 mph WSW6.4 kmh WSW 15.0 mph24.1 kmh 30.27 in1025.1 mb 0.00 in0.0 mm 0.00 in0.0 mm 0.00 in0.0 mm
09:24 PM 46.7°F8.2°C 34.4°F1.3°C 62% 9.0 mph S14.5 kmh S 15.0 mph24.1 kmh 30.27 in1025.1 mb 0.00 in0.0 mm 0.00 in0.0 mm 0.00 in0.0 mm
09:25 PM 46.7°F8.2°C 34.4°F1.3°C 62% 6.0 mph SW9.7 kmh SW 15.0 mph24.1 kmh 30.26 in1024.7 mb 0.00 in0.0 mm 0.00 in0.0 mm 0.00 in0.0 mm
09:26 PM 46.7°F8.2°C 34.0°F1.1°C 61% 7.0 mph SSW11.3 kmh SSW 15.0 mph24.1 kmh 30.27 in1025.1 mb 0.00 in0.0 mm 0.00 in0.0 mm 0.00 in0.0 mm
09:27 PM 46.7°F8.2°C 34.0°F1.1°C 61% 6.0 mph SW9.7 kmh SW 15.0 mph24.1 kmh 30.27 in1025.1 mb 0.00 in0.0 mm 0.00 in0.0 mm 0.00 in0.0 mm
09:28 PM 46.7°F8.2°C 34.4°F1.3°C 62% 6.0 mph WSW9.7 kmh WSW 15.0 mph24.1 kmh 30.27 in1025.1 mb 0.00 in0.0 mm 0.00 in0.0 mm 0.00 in0.0 mm
09:29 PM 46.6°F8.1°C 34.3°F1.3°C 62% 4.0 mph SW6.4 kmh SW 18.0 mph29.0 kmh 30.27 in1025.1 mb 0.00 in0.0 mm 0.00 in0.0 mm 0.00 in0.0 mm
09:30 PM 46.7°F8.2°C 34.4°F1.3°C 62% 7.0 mph S11.3 kmh S 18.0 mph29.0 kmh 30.26 in1024.7 mb 0.00 in0.0 mm 0.00 in0.0 mm 0.00 in0.0 mm
09:31 PM 46.7°F8.2°C 34.4°F1.3°C 62% 6.0 mph WSW9.7 kmh WSW 20.0 mph32.2 kmh 30.27 in1025.1 mb 0.00 in0.0 mm 0.00 in0.0 mm 0.00 in0.0 mm
09:32 PM 46.7°F8.2°C 34.8°F1.6°C 63% 12.0 mph SW19.3 kmh SW 20.0 mph32.2 kmh 30.27 in1025.1 mb 0.00 in0.0 mm 0.00 in0.0 mm 0.00 in0.0 mm
09:33 PM 46.7°F8.2°C 34.4°F1.3°C 62% 7.0 mph SW11.3 kmh SW 20.0 mph32.2 kmh 30.27 in1025.1 mb 0.00 in0.0 mm 0.00 in0.0 mm 0.00 in0.0 mm
09:34 PM 46.8°F8.2°C 34.9°F1.6°C 63% 9.0 mph SW14.5 kmh SW 20.0 mph32.2 kmh 30.27 in1025.1 mb 0.00 in0.0 mm 0.00 in0.0 mm 0.00 in0.0 mm
09:35 PM 46.8°F8.2°C 34.5°F1.4°C 62% 8.0 mph SW12.9 kmh SW 20.0 mph32.2 kmh 30.27 in1025.1 mb 0.00 in0.0 mm 0.00 in0.0 mm 0.00 in0.0 mm
09:36 PM 46.8°F8.2°C 34.5°F1.4°C 62% 6.0 mph SW9.7 kmh SW 20.0 mph32.2 kmh 30.27 in1025.1 mb 0.00 in0.0 mm 0.00 in0.0 mm 0.00 in0.0 mm
09:37 PM 46.8°F8.2°C 34.5°F1.4°C 62% 5.0 mph SW8.0 kmh SW 20.0 mph32.2 kmh 30.27 in1025.1 mb 0.00 in0.0 mm 0.00 in0.0 mm 0.00 in0.0 mm
09:38 PM 46.8°F8.2°C 34.5°F1.4°C 62% 9.0 mph WSW14.5 kmh WSW 20.0 mph32.2 kmh 30.27 in1025.1 mb 0.00 in0.0 mm 0.00 in0.0 mm 0.00 in0.0 mm
09:39 PM 46.8°F8.2°C 34.5°F1.4°C 62% 6.0 mph SSW9.7 kmh SSW 20.0 mph32.2 kmh 30.27 in1025.1 mb 0.00 in0.0 mm 0.00 in0.0 mm 0.00 in0.0 mm
09:40 PM 46.7°F8.2°C 34.8°F1.6°C 63% 1.0 mph SW1.6 kmh SW 20.0 mph32.2 kmh 30.27 in1025.1 mb 0.00 in0.0 mm 0.00 in0.0 mm 0.00 in0.0 mm
09:41 PM 46.7°F8.2°C 34.8°F1.6°C 63% 7.0 mph S11.3 kmh S 20.0 mph32.2 kmh 30.27 in1025.1 mb 0.00 in0.0 mm 0.00 in0.0 mm 0.00 in0.0 mm
09:42 PM 46.7°F8.2°C 34.8°F1.6°C 63% 6.0 mph SW9.7 kmh SW 20.0 mph32.2 kmh 30.27 in1025.1 mb 0.00 in0.0 mm 0.00 in0.0 mm 0.00 in0.0 mm
09:43 PM 46.8°F8.2°C 34.5°F1.4°C 62% 7.0 mph SW11.3 kmh SW 20.0 mph32.2 kmh 30.27 in1025.1 mb 0.00 in0.0 mm 0.00 in0.0 mm 0.00 in0.0 mm
09:44 PM 46.7°F8.2°C 34.4°F1.3°C 62% 8.0 mph SSW12.9 kmh SSW 20.0 mph32.2 kmh 30.27 in1025.1 mb 0.00 in0.0 mm 0.00 in0.0 mm 0.00 in0.0 mm
09:45 PM 46.7°F8.2°C 35.2°F1.8°C 64% 11.0 mph SW17.7 kmh SW 20.0 mph32.2 kmh 30.27 in1025.1 mb 0.00 in0.0 mm 0.00 in0.0 mm 0.00 in0.0 mm
09:46 PM 46.8°F8.2°C 35.3°F1.8°C 64% 6.0 mph SW9.7 kmh SW 20.0 mph32.2 kmh 30.27 in1025.1 mb 0.00 in0.0 mm 0.00 in0.0 mm 0.00 in0.0 mm
09:47 PM 46.8°F8.2°C 35.7°F2.1°C 65% 8.0 mph S12.9 kmh S 20.0 mph32.2 kmh 30.27 in1025.1 mb 0.00 in0.0 mm 0.00 in0.0 mm 0.00 in0.0 mm
09:48 PM 46.9°F8.3°C 35.8°F2.1°C 65% 7.0 mph SSW11.3 kmh SSW 20.0 mph32.2 kmh 30.27 in1025.1 mb 0.00 in0.0 mm 0.00 in0.0 mm 0.00 in0.0 mm
09:49 PM 46.9°F8.3°C 35.8°F2.1°C 65% 7.0 mph SW11.3 kmh SW 20.0 mph32.2 kmh 30.27 in1025.1 mb 0.00 in0.0 mm 0.00 in0.0 mm 0.00 in0.0 mm
09:50 PM 46.9°F8.3°C 35.4°F1.9°C 64% 7.0 mph SW11.3 kmh SW 20.0 mph32.2 kmh 30.26 in1024.7 mb 0.00 in0.0 mm 0.00 in0.0 mm 0.00 in0.0 mm
09:51 PM 46.9°F8.3°C 35.8°F2.1°C 65% 8.0 mph SW12.9 kmh SW 16.0 mph25.7 kmh 30.26 in1024.7 mb 0.00 in0.0 mm 0.00 in0.0 mm 0.00 in0.0 mm
09:52 PM 47.0°F8.3°C 35.9°F2.2°C 65% 10.0 mph WSW16.1 kmh WSW 16.0 mph25.7 kmh 30.26 in1024.7 mb 0.00 in0.0 mm 0.00 in0.0 mm 0.00 in0.0 mm
09:53 PM 47.0°F8.3°C 35.9°F2.2°C 65% 11.0 mph SW17.7 kmh SW 16.0 mph25.7 kmh 30.27 in1025.1 mb 0.00 in0.0 mm 0.00 in0.0 mm 0.00 in0.0 mm
09:54 PM 47.1°F8.4°C 35.9°F2.2°C 65% 7.0 mph SSW11.3 kmh SSW 16.0 mph25.7 kmh 30.27 in1025.1 mb 0.00 in0.0 mm 0.00 in0.0 mm 0.00 in0.0 mm
09:55 PM 47.1°F8.4°C 35.9°F2.2°C 65% 6.0 mph SW9.7 kmh SW 16.0 mph25.7 kmh 30.26 in1024.7 mb 0.00 in0.0 mm 0.00 in0.0 mm 0.00 in0.0 mm
09:56 PM 47.2°F8.4°C 36.0°F2.2°C 65% 9.0 mph SW14.5 kmh SW 16.0 mph25.7 kmh 30.26 in1024.7 mb 0.00 in0.0 mm 0.00 in0.0 mm 0.00 in0.0 mm
09:57 PM 47.3°F8.5°C 36.1°F2.3°C 65% 7.0 mph SW11.3 kmh SW 16.0 mph25.7 kmh 30.26 in1024.7 mb 0.00 in0.0 mm 0.00 in0.0 mm 0.00 in0.0 mm
09:58 PM 47.3°F8.5°C 36.1°F2.3°C 65% 12.0 mph SSW19.3 kmh SSW 16.0 mph25.7 kmh 30.26 in1024.7 mb 0.00 in0.0 mm 0.00 in0.0 mm 0.00 in0.0 mm
09:59 PM 47.3°F8.5°C 35.7°F2.1°C 64% 7.0 mph SW11.3 kmh SW 16.0 mph25.7 kmh 30.26 in1024.7 mb 0.00 in0.0 mm 0.00 in0.0 mm 0.00 in0.0 mm
10:00 PM 47.2°F8.4°C 36.0°F2.2°C 65% 7.0 mph SW11.3 kmh SW 16.0 mph25.7 kmh 30.26 in1024.7 mb 0.00 in0.0 mm 0.00 in0.0 mm 0.00 in0.0 mm
10:01 PM 47.2°F8.4°C 36.0°F2.2°C 65% 11.0 mph S17.7 kmh S 16.0 mph25.7 kmh 30.26 in1024.7 mb 0.00 in0.0 mm 0.00 in0.0 mm 0.00 in0.0 mm
10:02 PM 47.2°F8.4°C 36.0°F2.2°C 65% 8.0 mph SW12.9 kmh SW 16.0 mph25.7 kmh 30.26 in1024.7 mb 0.00 in0.0 mm 0.00 in0.0 mm 0.00 in0.0 mm
10:03 PM 47.2°F8.4°C 36.0°F2.2°C 65% 14.0 mph SW22.5 kmh SW 16.0 mph25.7 kmh 30.26 in1024.7 mb 0.00 in0.0 mm 0.00 in0.0 mm 0.00 in0.0 mm
10:04 PM 47.2°F8.4°C 36.0°F2.2°C 65% 12.0 mph SW19.3 kmh SW 16.0 mph25.7 kmh 30.26 in1024.7 mb 0.00 in0.0 mm 0.00 in0.0 mm 0.00 in0.0 mm
10:05 PM 47.2°F8.4°C 36.0°F2.2°C 65% 10.0 mph SSW16.1 kmh SSW 16.0 mph25.7 kmh 30.26 in1024.7 mb 0.00 in0.0 mm 0.00 in0.0 mm 0.00 in0.0 mm
10:06 PM 47.2°F8.4°C 36.0°F2.2°C 65% 7.0 mph SSW11.3 kmh SSW 16.0 mph25.7 kmh 30.26 in1024.7 mb 0.00 in0.0 mm 0.00 in0.0 mm 0.00 in0.0 mm
10:07 PM 47.3°F8.5°C 36.1°F2.3°C 65% 16.0 mph SSW25.7 kmh SSW 16.0 mph25.7 kmh 30.26 in1024.7 mb 0.00 in0.0 mm 0.00 in0.0 mm 0.00 in0.0 mm
10:08 PM 47.3°F8.5°C 36.1°F2.3°C 65% 9.0 mph SW14.5 kmh SW 17.0 mph27.4 kmh 30.25 in1024.4 mb 0.00 in0.0 mm 0.00 in0.0 mm 0.00 in0.0 mm
10:09 PM 47.4°F8.6°C 36.2°F2.3°C 65% 8.0 mph SW12.9 kmh SW 17.0 mph27.4 kmh 30.26 in1024.7 mb 0.00 in0.0 mm 0.00 in0.0 mm 0.00 in0.0 mm
10:10 PM 47.4°F8.6°C 36.2°F2.3°C 65% 10.0 mph SW16.1 kmh SW 17.0 mph27.4 kmh 30.25 in1024.4 mb 0.00 in0.0 mm 0.00 in0.0 mm 0.00 in0.0 mm
10:11 PM 47.3°F8.5°C 36.1°F2.3°C 65% 8.0 mph SW12.9 kmh SW 17.0 mph27.4 kmh 30.25 in1024.4 mb 0.00 in0.0 mm 0.00 in0.0 mm 0.00 in0.0 mm
10:12 PM 47.3°F8.5°C 36.1°F2.3°C 65% 5.0 mph SW8.0 kmh SW 17.0 mph27.4 kmh 30.25 in1024.4 mb 0.00 in0.0 mm 0.00 in0.0 mm 0.00 in0.0 mm
10:13 PM 47.3°F8.5°C 36.1°F2.3°C 65% 13.0 mph S20.9 kmh S 17.0 mph27.4 kmh 30.25 in1024.4 mb 0.00 in0.0 mm 0.00 in0.0 mm 0.00 in0.0 mm
10:14 PM 47.3°F8.5°C 36.1°F2.3°C 65% 10.0 mph SW16.1 kmh SW 17.0 mph27.4 kmh 30.25 in1024.4 mb 0.00 in0.0 mm 0.00 in0.0 mm 0.00 in0.0 mm
10:15 PM 47.3°F8.5°C 36.1°F2.3°C 65% 11.0 mph SSW17.7 kmh SSW 17.0 mph27.4 kmh 30.25 in1024.4 mb 0.00 in0.0 mm 0.00 in0.0 mm 0.00 in0.0 mm
10:16 PM 47.3°F8.5°C 36.1°F2.3°C 65% 7.0 mph SW11.3 kmh SW 17.0 mph27.4 kmh 30.25 in1024.4 mb 0.00 in0.0 mm 0.00 in0.0 mm 0.00 in0.0 mm
10:17 PM 47.2°F8.4°C 36.0°F2.2°C 65% 14.0 mph SW22.5 kmh SW 17.0 mph27.4 kmh 30.26 in1024.7 mb 0.00 in0.0 mm 0.00 in0.0 mm 0.00 in0.0 mm
10:18 PM 47.3°F8.5°C 36.1°F2.3°C 65% 10.0 mph SSW16.1 kmh SSW 17.0 mph27.4 kmh 30.25 in1024.4 mb 0.00 in0.0 mm 0.00 in0.0 mm 0.00 in0.0 mm
10:19 PM 47.3°F8.5°C 36.1°F2.3°C 65% 6.0 mph SSW9.7 kmh SSW 17.0 mph27.4 kmh 30.25 in1024.4 mb 0.00 in0.0 mm 0.00 in0.0 mm 0.00 in0.0 mm
10:20 PM 47.3°F8.5°C 36.1°F2.3°C 65% 7.0 mph SSW11.3 kmh SSW 17.0 mph27.4 kmh 30.25 in1024.4 mb 0.00 in0.0 mm 0.00 in0.0 mm 0.00 in0.0 mm
10:21 PM 47.3°F8.5°C 36.1°F2.3°C 65% 9.0 mph SW14.5 kmh SW 18.0 mph29.0 kmh 30.25 in1024.4 mb 0.00 in0.0 mm 0.00 in0.0 mm 0.00 in0.0 mm
10:22 PM 47.3°F8.5°C 36.1°F2.3°C 65% 7.0 mph SW11.3 kmh SW 18.0 mph29.0 kmh 30.25 in1024.4 mb 0.00 in0.0 mm 0.00 in0.0 mm 0.00 in0.0 mm
10:23 PM 47.3°F8.5°C 36.1°F2.3°C 65% 14.0 mph SW22.5 kmh SW 19.0 mph30.6 kmh 30.25 in1024.4 mb 0.00 in0.0 mm 0.00 in0.0 mm 0.00 in0.0 mm
10:24 PM 47.3°F8.5°C 36.1°F2.3°C 65% 16.0 mph SW25.7 kmh SW 22.0 mph35.4 kmh 30.25 in1024.4 mb 0.00 in0.0 mm 0.00 in0.0 mm 0.00 in0.0 mm
10:25 PM 47.3°F8.5°C 36.5°F2.5°C 66% 11.0 mph SW17.7 kmh SW 22.0 mph35.4 kmh 30.25 in1024.4 mb 0.00 in0.0 mm 0.00 in0.0 mm 0.00 in0.0 mm
10:26 PM 47.3°F8.5°C 36.5°F2.5°C 66% 13.0 mph SSW20.9 kmh SSW 22.0 mph35.4 kmh 30.25 in1024.4 mb 0.00 in0.0 mm 0.00 in0.0 mm 0.00 in0.0 mm
10:27 PM 47.3°F8.5°C 36.5°F2.5°C 66% 9.0 mph S14.5 kmh S 22.0 mph35.4 kmh 30.25 in1024.4 mb 0.00 in0.0 mm 0.00 in0.0 mm 0.00 in0.0 mm
10:28 PM 47.3°F8.5°C 36.5°F2.5°C 66% 18.0 mph SW29.0 kmh SW 22.0 mph35.4 kmh 30.25 in1024.4 mb 0.00 in0.0 mm 0.00 in0.0 mm 0.00 in0.0 mm
10:29 PM 47.3°F8.5°C 36.5°F2.5°C 66% 6.0 mph SW9.7 kmh SW 22.0 mph35.4 kmh 30.25 in1024.4 mb 0.00 in0.0 mm 0.00 in0.0 mm 0.00 in0.0 mm
10:30 PM 47.3°F8.5°C 36.5°F2.5°C 66% 10.0 mph SSW16.1 kmh SSW 22.0 mph35.4 kmh 30.25 in1024.4 mb 0.00 in0.0 mm 0.00 in0.0 mm 0.00 in0.0 mm
10:31 PM 47.3°F8.5°C 36.5°F2.5°C 66% 10.0 mph SSW16.1 kmh SSW 22.0 mph35.4 kmh 30.25 in1024.4 mb 0.00 in0.0 mm 0.00 in0.0 mm 0.00 in0.0 mm
10:32 PM 47.4°F8.6°C 36.6°F2.6°C 66% 12.0 mph SSW19.3 kmh SSW 22.0 mph35.4 kmh 30.25 in1024.4 mb 0.00 in0.0 mm 0.00 in0.0 mm 0.00 in0.0 mm
10:33 PM 47.3°F8.5°C 36.5°F2.5°C 66% 11.0 mph SSW17.7 kmh SSW 22.0 mph35.4 kmh 30.25 in1024.4 mb 0.00 in0.0 mm 0.00 in0.0 mm 0.00 in0.0 mm
10:34 PM 47.3°F8.5°C 36.5°F2.5°C 66% 10.0 mph S16.1 kmh S 22.0 mph35.4 kmh 30.25 in1024.4 mb 0.00 in0.0 mm 0.00 in0.0 mm 0.00 in0.0 mm
10:35 PM 47.3°F8.5°C 36.5°F2.5°C 66% 15.0 mph SW24.1 kmh SW 22.0 mph35.4 kmh 30.25 in1024.4 mb 0.00 in0.0 mm 0.00 in0.0 mm 0.00 in0.0 mm
10:36 PM 47.3°F8.5°C 36.5°F2.5°C 66% 11.0 mph SSW17.7 kmh SSW 22.0 mph35.4 kmh 30.25 in1024.4 mb 0.00 in0.0 mm 0.00 in0.0 mm 0.00 in0.0 mm
10:37 PM 47.3°F8.5°C 36.5°F2.5°C 66% 15.0 mph SW24.1 kmh SW 22.0 mph35.4 kmh 30.25 in1024.4 mb 0.00 in0.0 mm 0.00 in0.0 mm 0.00 in0.0 mm
10:38 PM 47.2°F8.4°C 36.8°F2.7°C 67% 11.0 mph S17.7 kmh S 22.0 mph35.4 kmh 30.24 in1024.0 mb 0.00 in0.0 mm 0.00 in0.0 mm 0.00 in0.0 mm
10:39 PM 47.2°F8.4°C 36.8°F2.7°C 67% 13.0 mph SSE20.9 kmh SSE 22.0 mph35.4 kmh 30.24 in1024.0 mb 0.00 in0.0 mm 0.00 in0.0 mm 0.00 in0.0 mm
10:40 PM 47.2°F8.4°C 36.8°F2.7°C 67% 10.0 mph SSW16.1 kmh SSW 22.0 mph35.4 kmh 30.24 in1024.0 mb 0.00 in0.0 mm 0.00 in0.0 mm 0.00 in0.0 mm
10:41 PM 47.2°F8.4°C 36.8°F2.7°C 67% 9.0 mph SW14.5 kmh SW 22.0 mph35.4 kmh 30.25 in1024.4 mb 0.00 in0.0 mm 0.00 in0.0 mm 0.00 in0.0 mm
10:42 PM 47.1°F8.4°C 36.7°F2.6°C 67% 9.0 mph SSW14.5 kmh SSW 22.0 mph35.4 kmh 30.24 in1024.0 mb 0.00 in0.0 mm 0.00 in0.0 mm 0.00 in0.0 mm
10:43 PM 47.1°F8.4°C 36.7°F2.6°C 67% 10.0 mph SW16.1 kmh SW 22.0 mph35.4 kmh 30.25 in1024.4 mb 0.00 in0.0 mm 0.00 in0.0 mm 0.00 in0.0 mm
10:44 PM 47.0°F8.3°C 36.6°F2.6°C 67% 16.0 mph SSW25.7 kmh SSW 20.0 mph32.2 kmh 30.24 in1024.0 mb 0.00 in0.0 mm 0.00 in0.0 mm 0.00 in0.0 mm
10:45 PM 47.0°F8.3°C 36.6°F2.6°C 67% 12.0 mph S19.3 kmh S 20.0 mph32.2 kmh 30.24 in1024.0 mb 0.00 in0.0 mm 0.00 in0.0 mm 0.00 in0.0 mm
10:46 PM 47.0°F8.3°C 36.6°F2.6°C 67% 15.0 mph S24.1 kmh S 20.0 mph32.2 kmh 30.24 in1024.0 mb 0.00 in0.0 mm 0.00 in0.0 mm 0.00 in0.0 mm
10:47 PM 46.9°F8.3°C 36.9°F2.7°C 68% 11.0 mph S17.7 kmh S 20.0 mph32.2 kmh 30.24 in1024.0 mb 0.00 in0.0 mm 0.00 in0.0 mm 0.00 in0.0 mm
10:48 PM 46.8°F8.2°C 36.8°F2.7°C 68% 7.0 mph SW11.3 kmh SW 20.0 mph32.2 kmh 30.24 in1024.0 mb 0.00 in0.0 mm 0.00 in0.0 mm 0.00 in0.0 mm
10:49 PM 46.7°F8.2°C 36.7°F2.6°C 68% 13.0 mph SSW20.9 kmh SSW 20.0 mph32.2 kmh 30.24 in1024.0 mb 0.00 in0.0 mm 0.00 in0.0 mm 0.00 in0.0 mm
10:50 PM 46.6°F8.1°C 36.6°F2.6°C 68% 8.0 mph S12.9 kmh S 20.0 mph32.2 kmh 30.24 in1024.0 mb 0.00 in0.0 mm 0.00 in0.0 mm 0.00 in0.0 mm
10:51 PM 46.6°F8.1°C 36.6°F2.6°C 68% 13.0 mph SSW20.9 kmh SSW 20.0 mph32.2 kmh 30.24 in1024.0 mb 0.00 in0.0 mm 0.00 in0.0 mm 0.00 in0.0 mm
10:52 PM 46.5°F8.1°C 36.9°F2.7°C 69% 9.0 mph SSW14.5 kmh SSW 20.0 mph32.2 kmh 30.24 in1024.0 mb 0.00 in0.0 mm 0.00 in0.0 mm 0.00 in0.0 mm
10:53 PM 46.5°F8.1°C 36.5°F2.5°C 68% 12.0 mph S19.3 kmh S 20.0 mph32.2 kmh 30.24 in1024.0 mb 0.00 in0.0 mm 0.00 in0.0 mm 0.00 in0.0 mm
10:54 PM 46.5°F8.1°C 36.9°F2.7°C 69% 10.0 mph SW16.1 kmh SW 18.0 mph29.0 kmh 30.24 in1024.0 mb 0.00 in0.0 mm 0.00 in0.0 mm 0.00 in0.0 mm
10:55 PM 46.5°F8.1°C 36.9°F2.7°C 69% 9.0 mph SSW14.5 kmh SSW 18.0 mph29.0 kmh 30.24 in1024.0 mb 0.00 in0.0 mm 0.00 in0.0 mm 0.00 in0.0 mm
10:56 PM 46.5°F8.1°C 36.9°F2.7°C 69% 15.0 mph SSW24.1 kmh SSW 18.0 mph29.0 kmh 30.25 in1024.4 mb 0.00 in0.0 mm 0.00 in0.0 mm 0.00 in0.0 mm
10:57 PM 46.5°F8.1°C 36.9°F2.7°C 69% 7.0 mph SSW11.3 kmh SSW 18.0 mph29.0 kmh 30.25 in1024.4 mb 0.00 in0.0 mm 0.00 in0.0 mm 0.00 in0.0 mm
10:58 PM 46.4°F8.0°C 36.8°F2.7°C 69% 10.0 mph SW16.1 kmh SW 18.0 mph29.0 kmh 30.25 in1024.4 mb 0.00 in0.0 mm 0.00 in0.0 mm 0.00 in0.0 mm
10:59 PM 46.4°F8.0°C 36.8°F2.7°C 69% 9.0 mph SSW14.5 kmh SSW 18.0 mph29.0 kmh 30.25 in1024.4 mb 0.00 in0.0 mm 0.00 in0.0 mm 0.00 in0.0 mm
11:00 PM 46.4°F8.0°C 36.8°F2.7°C 69% 9.0 mph SW14.5 kmh SW 18.0 mph29.0 kmh 30.25 in1024.4 mb 0.00 in0.0 mm 0.00 in0.0 mm 0.00 in0.0 mm
11:01 PM 46.4°F8.0°C 36.8°F2.7°C 69% 9.0 mph S14.5 kmh S 18.0 mph29.0 kmh 30.24 in1024.0 mb 0.00 in0.0 mm 0.00 in0.0 mm 0.00 in0.0 mm
11:02 PM 46.4°F8.0°C 36.8°F2.7°C 69% 9.0 mph SW14.5 kmh SW 18.0 mph29.0 kmh 30.25 in1024.4 mb 0.00 in0.0 mm 0.00 in0.0 mm 0.00 in0.0 mm
11:03 PM 46.5°F8.1°C 36.9°F2.7°C 69% 7.0 mph S11.3 kmh S 18.0 mph29.0 kmh 30.24 in1024.0 mb 0.00 in0.0 mm 0.00 in0.0 mm 0.00 in0.0 mm
11:04 PM 46.4°F8.0°C 36.8°F2.7°C 69% 7.0 mph SSW11.3 kmh SSW 16.0 mph25.7 kmh 30.24 in1024.0 mb 0.00 in0.0 mm 0.00 in0.0 mm 0.00 in0.0 mm
11:05 PM 46.4°F8.0°C 36.8°F2.7°C 69% 13.0 mph S20.9 kmh S 16.0 mph25.7 kmh 30.24 in1024.0 mb 0.00 in0.0 mm 0.00 in0.0 mm 0.00 in0.0 mm
11:06 PM 46.4°F8.0°C 36.8°F2.7°C 69% 6.0 mph S9.7 kmh S 16.0 mph25.7 kmh 30.24 in1024.0 mb 0.00 in0.0 mm 0.00 in0.0 mm 0.00 in0.0 mm
11:07 PM 46.4°F8.0°C 36.8°F2.7°C 69% 12.0 mph S19.3 kmh S 16.0 mph25.7 kmh 30.24 in1024.0 mb 0.00 in0.0 mm 0.00 in0.0 mm 0.00 in0.0 mm
11:08 PM 46.4°F8.0°C 36.8°F2.7°C 69% 14.0 mph SSW22.5 kmh SSW 17.0 mph27.4 kmh 30.24 in1024.0 mb 0.00 in0.0 mm 0.00 in0.0 mm 0.00 in0.0 mm
11:09 PM 46.3°F7.9°C 36.7°F2.6°C 69% 12.0 mph SW19.3 kmh SW 17.0 mph27.4 kmh 30.24 in1024.0 mb 0.00 in0.0 mm 0.00 in0.0 mm 0.00 in0.0 mm
11:10 PM 46.3°F7.9°C 37.1°F2.8°C 70% 9.0 mph SSW14.5 kmh SSW 17.0 mph27.4 kmh 30.24 in1024.0 mb 0.00 in0.0 mm 0.00 in0.0 mm 0.00 in0.0 mm
11:11 PM 46.3°F7.9°C 36.7°F2.6°C 69% 7.0 mph SSW11.3 kmh SSW 17.0 mph27.4 kmh 30.24 in1024.0 mb 0.00 in0.0 mm 0.00 in0.0 mm 0.00 in0.0 mm
11:12 PM 46.4°F8.0°C 37.2°F2.9°C 70% 12.0 mph S19.3 kmh S 17.0 mph27.4 kmh 30.24 in1024.0 mb 0.00 in0.0 mm 0.00 in0.0 mm 0.00 in0.0 mm
11:13 PM 46.4°F8.0°C 37.2°F2.9°C 70% 9.0 mph S14.5 kmh S 17.0 mph27.4 kmh 30.24 in1024.0 mb 0.00 in0.0 mm 0.00 in0.0 mm 0.00 in0.0 mm
11:14 PM 46.4°F8.0°C 37.2°F2.9°C 70% 11.0 mph S17.7 kmh S 17.0 mph27.4 kmh 30.24 in1024.0 mb 0.00 in0.0 mm 0.00 in0.0 mm 0.00 in0.0 mm
11:15 PM 46.4°F8.0°C 37.2°F2.9°C 70% 19.0 mph S30.6 kmh S 22.0 mph35.4 kmh 30.24 in1024.0 mb 0.00 in0.0 mm 0.00 in0.0 mm 0.00 in0.0 mm
11:16 PM 46.5°F8.1°C 37.3°F2.9°C 70% 9.0 mph S14.5 kmh S 22.0 mph35.4 kmh 30.24 in1024.0 mb 0.00 in0.0 mm 0.00 in0.0 mm 0.00 in0.0 mm
11:17 PM 46.5°F8.1°C 37.3°F2.9°C 70% 9.0 mph S14.5 kmh S 22.0 mph35.4 kmh 30.24 in1024.0 mb 0.00 in0.0 mm 0.00 in0.0 mm 0.00 in0.0 mm
11:18 PM 46.4°F8.0°C 36.8°F2.7°C 69% 6.0 mph S9.7 kmh S 22.0 mph35.4 kmh 30.24 in1024.0 mb 0.00 in0.0 mm 0.00 in0.0 mm 0.00 in0.0 mm
11:19 PM 46.4°F8.0°C 36.8°F2.7°C 69% 8.0 mph S12.9 kmh S 22.0 mph35.4 kmh 30.24 in1024.0 mb 0.00 in0.0 mm 0.00 in0.0 mm 0.00 in0.0 mm
11:20 PM 46.3°F7.9°C 36.7°F2.6°C 69% 7.0 mph S11.3 kmh S 22.0 mph35.4 kmh 30.24 in1024.0 mb 0.00 in0.0 mm 0.00 in0.0 mm 0.00 in0.0 mm
11:21 PM 46.2°F7.9°C 37.0°F2.8°C 70% 12.0 mph S19.3 kmh S 22.0 mph35.4 kmh 30.24 in1024.0 mb 0.00 in0.0 mm 0.00 in0.0 mm 0.00 in0.0 mm
11:22 PM 46.3°F7.9°C 37.1°F2.8°C 70% 10.0 mph S16.1 kmh S 22.0 mph35.4 kmh 30.24 in1024.0 mb 0.00 in0.0 mm 0.00 in0.0 mm 0.00 in0.0 mm
11:23 PM 46.3°F7.9°C 37.4°F3.0°C 71% 9.0 mph S14.5 kmh S 22.0 mph35.4 kmh 30.24 in1024.0 mb 0.00 in0.0 mm 0.00 in0.0 mm 0.00 in0.0 mm
11:24 PM 46.3°F7.9°C 37.1°F2.8°C 70% 10.0 mph S16.1 kmh S 22.0 mph35.4 kmh 30.24 in1024.0 mb 0.00 in0.0 mm 0.00 in0.0 mm 0.00 in0.0 mm
11:25 PM 46.3°F7.9°C 37.1°F2.8°C 70% 10.0 mph S16.1 kmh S 22.0 mph35.4 kmh 30.24 in1024.0 mb 0.00 in0.0 mm 0.00 in0.0 mm 0.00 in0.0 mm
11:26 PM 46.3°F7.9°C 37.1°F2.8°C 70% 10.0 mph S16.1 kmh S 22.0 mph35.4 kmh 30.24 in1024.0 mb 0.00 in0.0 mm 0.00 in0.0 mm 0.00 in0.0 mm
11:27 PM 46.3°F7.9°C 37.1°F2.8°C 70% 8.0 mph S12.9 kmh S 22.0 mph35.4 kmh 30.24 in1024.0 mb 0.00 in0.0 mm 0.00 in0.0 mm 0.00 in0.0 mm
11:28 PM 46.2°F7.9°C 37.0°F2.8°C 70% 9.0 mph S14.5 kmh S 22.0 mph35.4 kmh 30.24 in1024.0 mb 0.00 in0.0 mm 0.00 in0.0 mm 0.00 in0.0 mm
11:29 PM 46.2°F7.9°C 37.0°F2.8°C 70% 9.0 mph S14.5 kmh S 22.0 mph35.4 kmh 30.24 in1024.0 mb 0.00 in0.0 mm 0.00 in0.0 mm 0.00 in0.0 mm
11:30 PM 46.2°F7.9°C 37.3°F2.9°C 71% 8.0 mph S12.9 kmh S 22.0 mph35.4 kmh 30.24 in1024.0 mb 0.00 in0.0 mm 0.00 in0.0 mm 0.00 in0.0 mm
11:31 PM 46.2°F7.9°C 37.3°F2.9°C 71% 7.0 mph S11.3 kmh S 22.0 mph35.4 kmh 30.24 in1024.0 mb 0.00 in0.0 mm 0.00 in0.0 mm 0.00 in0.0 mm
11:32 PM 46.2°F7.9°C 37.3°F2.9°C 71% 9.0 mph SSE14.5 kmh SSE 22.0 mph35.4 kmh 30.24 in1024.0 mb 0.00 in0.0 mm 0.00 in0.0 mm 0.00 in0.0 mm
11:33 PM 46.3°F7.9°C 37.4°F3.0°C 71% 10.0 mph S16.1 kmh S 22.0 mph35.4 kmh 30.23 in1023.7 mb 0.00 in0.0 mm 0.00 in0.0 mm 0.00 in0.0 mm
11:34 PM 46.3°F7.9°C 37.4°F3.0°C 71% 8.0 mph S12.9 kmh S 22.0 mph35.4 kmh 30.23 in1023.7 mb 0.00 in0.0 mm 0.00 in0.0 mm 0.00 in0.0 mm
11:35 PM 46.4°F8.0°C 37.5°F3.1°C 71% 8.0 mph SE12.9 kmh SE 13.0 mph20.9 kmh 30.23 in1023.7 mb 0.00 in0.0 mm 0.00 in0.0 mm 0.00 in0.0 mm
11:36 PM 46.4°F8.0°C 37.5°F3.1°C 71% 8.0 mph SSE12.9 kmh SSE 13.0 mph20.9 kmh 30.23 in1023.7 mb 0.00 in0.0 mm 0.00 in0.0 mm 0.00 in0.0 mm
11:37 PM 46.4°F8.0°C 37.5°F3.1°C 71% 4.0 mph SE6.4 kmh SE 13.0 mph20.9 kmh 30.23 in1023.7 mb 0.00 in0.0 mm 0.00 in0.0 mm 0.00 in0.0 mm
11:38 PM 46.5°F8.1°C 37.6°F3.1°C 71% 7.0 mph S11.3 kmh S 13.0 mph20.9 kmh 30.24 in1024.0 mb 0.00 in0.0 mm 0.00 in0.0 mm 0.00 in0.0 mm
11:39 PM 46.5°F8.1°C 37.6°F3.1°C 71% 13.0 mph S20.9 kmh S 13.0 mph20.9 kmh 30.24 in1024.0 mb 0.00 in0.0 mm 0.00 in0.0 mm 0.00 in0.0 mm
11:40 PM 46.5°F8.1°C 37.6°F3.1°C 71% 9.0 mph SSE14.5 kmh SSE 13.0 mph20.9 kmh 30.23 in1023.7 mb 0.00 in0.0 mm 0.00 in0.0 mm 0.00 in0.0 mm
11:41 PM 46.6°F8.1°C 37.7°F3.2°C 71% 5.0 mph SSE8.0 kmh SSE 13.0 mph20.9 kmh 30.23 in1023.7 mb 0.00 in0.0 mm 0.00 in0.0 mm 0.00 in0.0 mm
11:42 PM 46.6°F8.1°C 37.3°F2.9°C 70% 8.0 mph S12.9 kmh S 13.0 mph20.9 kmh 30.23 in1023.7 mb 0.00 in0.0 mm 0.00 in0.0 mm 0.00 in0.0 mm
11:43 PM 46.6°F8.1°C 37.3°F2.9°C 70% 10.0 mph S16.1 kmh S 13.0 mph20.9 kmh 30.23 in1023.7 mb 0.00 in0.0 mm 0.00 in0.0 mm 0.00 in0.0 mm
11:44 PM 46.5°F8.1°C 37.3°F2.9°C 70% 7.0 mph SSE11.3 kmh SSE 13.0 mph20.9 kmh 30.23 in1023.7 mb 0.00 in0.0 mm 0.00 in0.0 mm 0.00 in0.0 mm
11:45 PM 46.5°F8.1°C 37.3°F2.9°C 70% 9.0 mph SSE14.5 kmh SSE 14.0 mph22.5 kmh 30.23 in1023.7 mb 0.00 in0.0 mm 0.00 in0.0 mm 0.00 in0.0 mm
11:46 PM 46.4°F8.0°C 37.2°F2.9°C 70% 12.0 mph SSE19.3 kmh SSE 15.0 mph24.1 kmh 30.23 in1023.7 mb 0.00 in0.0 mm 0.00 in0.0 mm 0.00 in0.0 mm
11:47 PM 46.3°F7.9°C 37.1°F2.8°C 70% 9.0 mph SSE14.5 kmh SSE 15.0 mph24.1 kmh 30.23 in1023.7 mb 0.00 in0.0 mm 0.00 in0.0 mm 0.00 in0.0 mm
11:48 PM 46.3°F7.9°C 37.1°F2.8°C 70% 6.0 mph SSE9.7 kmh SSE 15.0 mph24.1 kmh 30.23 in1023.7 mb 0.00 in0.0 mm 0.00 in0.0 mm 0.00 in0.0 mm
11:49 PM 46.2°F7.9°C 37.3°F2.9°C 71% 9.0 mph SSE14.5 kmh SSE 15.0 mph24.1 kmh 30.23 in1023.7 mb 0.00 in0.0 mm 0.00 in0.0 mm 0.00 in0.0 mm
11:50 PM 46.1°F7.8°C 37.2°F2.9°C 71% 7.0 mph S11.3 kmh S 15.0 mph24.1 kmh 30.23 in1023.7 mb 0.00 in0.0 mm 0.00 in0.0 mm 0.00 in0.0 mm
11:51 PM 46.1°F7.8°C 36.9°F2.7°C 70% 7.0 mph S11.3 kmh S 15.0 mph24.1 kmh 30.23 in1023.7 mb 0.00 in0.0 mm 0.00 in0.0 mm 0.00 in0.0 mm
11:52 PM 45.9°F7.7°C 37.0°F2.8°C 71% 8.0 mph SE12.9 kmh SE 15.0 mph24.1 kmh 30.23 in1023.7 mb 0.00 in0.0 mm 0.00 in0.0 mm 0.00 in0.0 mm
11:53 PM 45.8°F7.7°C 36.9°F2.7°C 71% 9.0 mph S14.5 kmh S 15.0 mph24.1 kmh 30.23 in1023.7 mb 0.00 in0.0 mm 0.00 in0.0 mm 0.00 in0.0 mm
11:54 PM 45.8°F7.7°C 37.3°F2.9°C 72% 10.0 mph SSE16.1 kmh SSE 15.0 mph24.1 kmh 30.23 in1023.7 mb 0.00 in0.0 mm 0.00 in0.0 mm 0.00 in0.0 mm
11:55 PM 45.8°F7.7°C 36.9°F2.7°C 71% 11.0 mph S17.7 kmh S 15.0 mph24.1 kmh 30.23 in1023.7 mb 0.00 in0.0 mm 0.00 in0.0 mm 0.00 in0.0 mm
11:56 PM 45.9°F7.7°C 37.0°F2.8°C 71% 9.0 mph SSE14.5 kmh SSE 15.0 mph24.1 kmh 30.23 in1023.7 mb 0.00 in0.0 mm 0.00 in0.0 mm 0.00 in0.0 mm
11:57 PM 45.8°F7.7°C 36.9°F2.7°C 71% 7.0 mph S11.3 kmh S 15.0 mph24.1 kmh 30.23 in1023.7 mb 0.00 in0.0 mm 0.00 in0.0 mm 0.00 in0.0 mm
11:58 PM 45.8°F7.7°C 36.9°F2.7°C 71% 8.0 mph S12.9 kmh S 15.0 mph24.1 kmh 30.23 in1023.7 mb 0.00 in0.0 mm 0.00 in0.0 mm 0.00 in0.0 mm
11:59 PM 45.8°F7.7°C 36.9°F2.7°C 71% 7.0 mph S11.3 kmh S 15.0 mph24.1 kmh 30.23 in1023.7 mb 0.00 in0.0 mm 0.00 in0.0 mm 0.00 in0.0 mm